createdAt,value
2022-08-27T00:01:43.359Z,9.95
2022-08-27T00:05:06.023Z,9.73
2022-08-27T00:08:34.652Z,8.07
2022-08-27T00:11:58.925Z,9.25
2022-08-27T00:15:21.341Z,8.52
2022-08-27T00:18:48.003Z,9.55
2022-08-27T00:22:12.034Z,9.70
2022-08-27T00:25:39.736Z,9.45
2022-08-27T00:29:05.033Z,9.30
2022-08-27T00:32:29.841Z,9.60
2022-08-27T00:36:00.778Z,9.80
2022-08-27T00:39:26.550Z,9.32
2022-08-27T00:42:54.080Z,9.18
2022-08-27T00:46:46.396Z,9.80
2022-08-27T00:50:41.613Z,8.52
2022-08-27T00:54:05.813Z,9.20
2022-08-27T00:57:28.290Z,9.20
2022-08-27T01:00:50.453Z,8.90
2022-08-27T01:04:12.487Z,8.68
2022-08-27T01:07:41.620Z,9.10
2022-08-27T01:11:04.732Z,8.32
2022-08-27T01:14:27.365Z,9.25
2022-08-27T01:17:50.551Z,9.07
2022-08-27T01:21:33.116Z,9.13
2022-08-27T01:24:59.971Z,9.82
2022-08-27T01:28:29.194Z,10.73
2022-08-27T01:32:25.788Z,11.32
2022-08-27T01:35:51.008Z,11.45
2022-08-27T01:39:13.022Z,12.90
2022-08-27T01:42:45.749Z,11.93
2022-08-27T01:46:07.732Z,11.35
2022-08-27T01:49:30.372Z,10.43
2022-08-27T01:52:54.728Z,10.32
2022-08-27T01:56:16.864Z,11.10
2022-08-27T01:59:40.145Z,12.15
2022-08-27T02:03:03.653Z,13.15
2022-08-27T02:06:25.743Z,12.23
2022-08-27T02:09:47.736Z,13.13
2022-08-27T02:13:10.429Z,13.23
2022-08-27T02:16:33.343Z,12.45
2022-08-27T02:20:00.953Z,11.48
2022-08-27T02:23:22.991Z,11.02
2022-08-27T02:26:45.365Z,10.38
2022-08-27T02:30:10.372Z,10.65
2022-08-27T02:33:33.404Z,10.18
2022-08-27T02:36:55.729Z,9.90
2022-08-27T02:40:19.753Z,10.00
2022-08-27T02:43:41.808Z,10.00
2022-08-27T02:47:04.505Z,9.70
2022-08-27T02:50:28.295Z,9.35
2022-08-27T02:53:55.132Z,10.27
2022-08-27T02:57:19.278Z,11.20
2022-08-27T03:00:49.460Z,11.00
2022-08-27T03:04:14.632Z,11.65
2022-08-27T03:07:45.146Z,10.43
2022-08-27T03:11:12.821Z,10.88
2022-08-27T03:14:35.928Z,10.85
2022-08-27T03:18:16.405Z,11.48
2022-08-27T03:21:38.727Z,10.90
2022-08-27T03:25:02.995Z,9.95
2022-08-27T03:28:31.672Z,9.48
2022-08-27T03:31:54.062Z,10.35
2022-08-27T03:35:21.490Z,9.75
2022-08-27T03:38:44.360Z,10.27
2022-08-27T03:42:06.462Z,10.15
2022-08-27T03:45:28.528Z,11.00
2022-08-27T03:48:50.530Z,8.90
2022-08-27T03:52:16.152Z,7.30
2022-08-27T03:55:38.165Z,7.00
2022-08-27T03:59:00.214Z,5.55
2022-08-27T04:02:22.242Z,4.93
2022-08-27T04:05:44.749Z,5.32
2022-08-27T04:09:07.504Z,4.22
2022-08-27T04:12:29.508Z,4.30
2022-08-27T04:15:53.167Z,3.55
2022-08-27T04:19:15.257Z,3.63
2022-08-27T04:22:39.409Z,3.50
2022-08-27T04:26:06.041Z,3.67
2022-08-27T04:29:28.476Z,3.90
2022-08-27T04:32:50.741Z,3.63
2022-08-27T04:36:12.846Z,3.20
2022-08-27T04:39:34.920Z,3.40
2022-08-27T04:42:57.287Z,3.63
2022-08-27T04:46:31.946Z,3.22
2022-08-27T04:49:53.981Z,4.68
2022-08-27T04:53:16.914Z,6.00
2022-08-27T04:56:40.845Z,6.07
2022-08-27T05:00:05.452Z,6.30
2022-08-27T05:03:29.332Z,5.55
2022-08-27T05:06:54.765Z,5.60
2022-08-27T05:10:20.563Z,6.13
2022-08-27T05:17:24.492Z,5.40
2022-08-27T05:20:49.047Z,5.13
2022-08-27T05:24:11.437Z,6.82
2022-08-27T05:27:35.007Z,9.13
2022-08-27T05:31:05.669Z,10.73
2022-08-27T05:34:27.795Z,8.15
2022-08-27T05:37:52.628Z,11.70
2022-08-27T05:41:21.317Z,15.55
2022-08-27T05:44:44.793Z,17.52
2022-08-27T05:48:09.549Z,18.00
2022-08-27T05:51:35.631Z,15.45
2022-08-27T05:55:02.964Z,13.95
2022-08-27T05:58:44.345Z,10.02
2022-08-27T06:02:08.942Z,12.40
2022-08-27T06:05:35.219Z,12.52
2022-08-27T06:08:57.398Z,16.60
2022-08-27T06:12:19.416Z,11.38
2022-08-27T06:15:50.639Z,12.43
2022-08-27T06:19:13.215Z,12.70
2022-08-27T06:22:36.235Z,11.82
2022-08-27T06:26:01.831Z,9.15
2022-08-27T06:29:28.093Z,11.10
2022-08-27T06:32:54.135Z,10.60
2022-08-27T06:36:21.569Z,8.93
2022-08-27T06:39:46.288Z,9.93
2022-08-27T06:43:08.659Z,10.43
2022-08-27T06:46:31.665Z,10.05
2022-08-27T06:49:54.211Z,8.90
2022-08-27T06:53:18.633Z,10.32
2022-08-27T06:56:50.726Z,11.10
2022-08-27T07:00:16.438Z,8.90
2022-08-27T07:03:44.613Z,9.20
2022-08-27T07:07:08.205Z,8.02
2022-08-27T07:10:33.389Z,6.45
2022-08-27T07:13:56.423Z,5.13
2022-08-27T07:17:18.486Z,5.25
2022-08-27T07:20:43.097Z,5.88
2022-08-27T07:24:16.752Z,5.15
2022-08-27T07:27:40.978Z,6.20
2022-08-27T07:31:05.395Z,6.43
2022-08-27T07:34:28.766Z,6.82
2022-08-27T07:37:52.895Z,7.53
2022-08-27T07:41:16.737Z,6.80
2022-08-27T07:44:45.936Z,6.65
2022-08-27T07:48:09.915Z,6.85
2022-08-27T07:51:37.069Z,6.82
2022-08-27T07:55:03.019Z,7.53
2022-08-27T07:58:29.425Z,6.10
2022-08-27T08:01:52.766Z,6.60
2022-08-27T08:05:19.591Z,5.93
2022-08-27T08:08:46.015Z,6.15
2022-08-27T08:12:09.292Z,6.45
2022-08-27T08:15:44.632Z,6.70
2022-08-27T08:19:09.228Z,7.32
2022-08-27T08:22:32.618Z,6.30
2022-08-27T08:25:55.992Z,6.05
2022-08-27T08:29:34.324Z,5.68
2022-08-27T08:33:00.366Z,5.38
2022-08-27T08:36:33.364Z,6.03
2022-08-27T08:39:57.225Z,5.53
2022-08-27T08:43:34.960Z,5.50
2022-08-27T08:47:22.334Z,5.72
2022-08-27T08:51:06.947Z,5.85
2022-08-27T08:54:33.294Z,5.75
2022-08-27T08:58:24.056Z,6.05
2022-08-27T09:01:52.394Z,5.85
2022-08-27T09:05:15.680Z,6.00
2022-08-27T09:08:45.783Z,5.05
2022-08-27T09:12:27.529Z,6.13
2022-08-27T09:15:56.340Z,6.30
2022-08-27T09:19:24.703Z,6.25
2022-08-27T09:23:19.174Z,6.90
2022-08-27T09:27:14.495Z,5.97
2022-08-27T09:30:56.388Z,6.65
2022-08-27T09:34:27.409Z,6.85
2022-08-27T09:38:20.078Z,6.50
2022-08-27T09:42:20.111Z,6.28
2022-08-27T09:46:24.367Z,6.40
2022-08-27T09:50:09.926Z,4.68
2022-08-27T09:54:10.581Z,2.22
2022-08-27T09:57:53.048Z,1.80
2022-08-27T10:01:51.339Z,0.88
2022-08-27T10:06:00.228Z,1.30
2022-08-27T10:09:54.609Z,1.42
2022-08-27T10:13:27.610Z,1.98
2022-08-27T10:17:02.139Z,3.08
2022-08-27T10:20:55.180Z,3.28
2022-08-27T10:25:54.750Z,4.22
2022-08-27T10:29:53.421Z,4.03
2022-08-27T10:33:32.825Z,4.90
2022-08-27T10:37:20.946Z,5.95
2022-08-27T11:00:26.869Z,4.93
2022-08-27T11:09:07.529Z,6.53
2022-08-27T11:13:08.459Z,6.97
2022-08-27T11:17:34.396Z,7.75
2022-08-27T11:21:19.832Z,6.88
2022-08-27T11:25:05.033Z,7.88
2022-08-27T11:28:48.767Z,7.57
2022-08-27T11:32:24.563Z,7.93
2022-08-27T11:36:16.404Z,7.28
2022-08-27T11:39:56.493Z,6.93
2022-08-27T11:44:57.906Z,7.57
2022-08-27T12:00:01.063Z,5.95
2022-08-27T12:04:47.804Z,5.50
2022-08-27T12:43:35.401Z,4.40
2022-08-27T12:52:10.058Z,4.70
2022-08-27T12:56:44.585Z,5.45
2022-08-27T13:00:26.546Z,4.80
2022-08-27T13:08:42.850Z,5.50
2022-08-27T13:27:05.508Z,4.10
2022-08-27T13:35:13.169Z,4.43
2022-08-27T13:39:31.695Z,3.67
2022-08-27T13:43:59.717Z,3.75
2022-08-27T13:48:01.365Z,2.85
2022-08-27T13:51:55.180Z,3.20
2022-08-27T14:00:44.502Z,3.58
2022-08-27T14:04:54.462Z,3.47
2022-08-27T14:08:31.529Z,2.60
2022-08-27T14:18:48.152Z,3.50
2022-08-27T14:22:02.666Z,3.67
2022-08-27T14:25:25.221Z,4.15
2022-08-27T14:28:48.245Z,3.83
2022-08-27T14:33:02.811Z,4.30
2022-08-27T14:37:51.475Z,4.57
2022-08-27T14:41:36.250Z,4.22
2022-08-27T14:45:24.118Z,3.97
2022-08-27T14:48:51.823Z,4.10
2022-08-27T14:52:42.307Z,3.65
2022-08-27T14:57:05.545Z,3.83
2022-08-27T15:05:28.958Z,4.35
2022-08-27T15:14:54.805Z,4.60
2022-08-27T15:29:17.631Z,3.95
2022-08-27T15:39:00.735Z,4.38
2022-08-27T15:44:01.825Z,4.30
2022-08-27T15:49:20.311Z,3.85
2022-08-27T15:53:41.007Z,4.10
2022-08-27T15:57:27.345Z,4.10
2022-08-27T16:05:39.058Z,4.90
2022-08-27T16:09:01.124Z,3.85
2022-08-27T16:12:49.881Z,3.92
2022-08-27T16:27:29.734Z,3.88
2022-08-27T16:36:37.229Z,3.78
2022-08-27T16:40:33.026Z,4.10
2022-08-27T16:45:06.102Z,4.05
2022-08-27T16:53:21.583Z,3.92
2022-08-27T16:56:51.115Z,3.60
2022-08-27T17:01:03.105Z,4.05
2022-08-27T17:04:49.291Z,3.88
2022-08-27T17:09:16.975Z,4.28
2022-08-27T17:12:49.719Z,3.83
2022-08-27T17:16:20.906Z,3.50
2022-08-27T17:19:49.256Z,3.75
2022-08-27T17:23:28.879Z,4.47
2022-08-27T17:27:02.235Z,4.25
2022-08-27T17:30:33.864Z,4.88
2022-08-27T17:34:00.926Z,4.57
2022-08-27T17:37:25.378Z,4.72
2022-08-27T17:40:52.234Z,5.03
2022-08-27T17:45:05.254Z,4.13
2022-08-27T17:49:27.009Z,6.15
2022-08-27T17:53:29.085Z,5.60
2022-08-27T18:06:40.326Z,6.40
2022-08-27T18:10:04.558Z,8.10
2022-08-27T18:13:40.304Z,7.45
2022-08-27T18:17:16.363Z,6.90
2022-08-27T18:20:46.960Z,7.13
2022-08-27T18:24:23.405Z,8.00
2022-08-27T18:27:52.875Z,7.40
2022-08-27T18:31:22.439Z,7.60
2022-08-27T18:34:51.277Z,8.25
2022-08-27T18:38:30.598Z,8.30
2022-08-27T18:42:22.731Z,8.32
2022-08-27T18:45:55.501Z,7.93
2022-08-27T18:49:28.951Z,7.90
2022-08-27T18:53:10.832Z,7.68
2022-08-27T18:56:53.903Z,8.40
2022-08-27T19:00:21.434Z,8.00
2022-08-27T19:03:54.425Z,8.02
2022-08-27T19:07:20.645Z,8.13
2022-08-27T19:10:51.374Z,7.82
2022-08-27T19:14:19.042Z,8.23
2022-08-27T19:17:51.951Z,7.68
2022-08-27T19:21:30.990Z,8.10
2022-08-27T19:25:19.693Z,8.13
2022-08-27T19:28:48.204Z,9.38
2022-08-27T19:32:24.125Z,9.65
2022-08-27T19:35:51.993Z,10.02
2022-08-27T19:39:26.205Z,9.32
2022-08-27T19:42:53.838Z,10.25
2022-08-27T19:46:24.342Z,10.02
2022-08-27T19:49:56.155Z,10.10
2022-08-27T19:53:24.406Z,10.63
2022-08-27T19:57:10.929Z,11.52
2022-08-27T20:00:42.529Z,10.95
2022-08-27T20:07:56.723Z,11.38
2022-08-27T20:11:22.122Z,10.65
2022-08-27T20:14:45.738Z,11.05
2022-08-27T20:18:14.069Z,10.07
2022-08-27T20:21:37.220Z,10.23
2022-08-27T20:25:00.704Z,10.65
2022-08-27T20:28:39.029Z,11.23
2022-08-27T20:32:07.555Z,10.50
2022-08-27T20:35:33.714Z,9.95
2022-08-27T21:11:02.854Z,6.90
2022-08-27T21:14:26.052Z,6.63
2022-08-27T21:17:51.292Z,7.15
2022-08-27T21:21:14.669Z,7.22
2022-08-27T21:24:38.156Z,6.78
2022-08-27T21:28:04.008Z,6.22
2022-08-27T21:31:27.104Z,6.25
2022-08-27T21:34:50.325Z,6.20
2022-08-27T21:38:13.063Z,5.55
2022-08-27T21:41:37.724Z,5.90
2022-08-27T21:45:00.666Z,6.63
2022-08-27T21:48:24.140Z,6.70
2022-08-27T21:51:47.152Z,6.93
2022-08-27T21:55:12.552Z,7.38
2022-08-27T21:58:36.175Z,7.80
2022-08-27T22:02:00.931Z,7.85
2022-08-27T22:05:26.351Z,9.15
2022-08-27T22:08:49.713Z,9.10
2022-08-27T22:12:13.502Z,9.15
2022-08-27T22:15:37.659Z,12.27
2022-08-27T22:19:02.539Z,11.77
2022-08-27T22:22:30.882Z,12.38
2022-08-27T22:25:54.069Z,11.35
2022-08-27T22:29:17.640Z,11.88
2022-08-27T22:32:41.746Z,9.93
2022-08-27T22:36:05.761Z,10.77
2022-08-27T22:39:29.543Z,11.18
2022-08-27T22:42:56.354Z,9.73
2022-08-27T22:46:20.716Z,8.48
2022-08-27T22:49:48.858Z,8.52
2022-08-27T22:53:17.067Z,8.10
2022-08-27T22:56:41.313Z,8.50
2022-08-27T23:00:12.899Z,7.53
2022-08-27T23:03:36.069Z,7.30
2022-08-27T23:07:02.219Z,6.90
2022-08-27T23:10:25.230Z,6.70
2022-08-27T23:13:47.943Z,6.53
2022-08-27T23:17:10.829Z,5.78
2022-08-27T23:20:34.938Z,5.13
2022-08-27T23:23:57.395Z,4.90
2022-08-27T23:27:35.433Z,4.97
2022-08-27T23:31:00.529Z,4.88
2022-08-27T23:34:25.677Z,4.57
2022-08-27T23:37:50.392Z,4.72
2022-08-27T23:41:16.740Z,4.70
2022-08-27T23:44:40.471Z,4.57
2022-08-27T23:48:04.140Z,4.07
2022-08-27T23:51:28.005Z,4.72
2022-08-27T23:54:51.138Z,4.65
2022-08-27T23:58:14.243Z,6.45
